WELCOME TO AIR WEST FLIGHT SUPPORT

Slider

THE RIGHT CHOICE FOR THE BEST SERVICE

OUR GOAL IS TO BE THE MOST ACCOMMODATING FBO IN LETHBRIDGE, AB. WITH EFFICIENT AND PROFFESSIONAL SERVICE

 WE HAVE GOT IT ALL!

  • Great Attitude
  • The Right Equipment
  • Large Facilities
  • Competitive Fuel Prices
  • In-House Aircraft Maintenance
  • In-House Flight Training, Aircraft Rentals
  • Aircraft Sales And Much  More!

Facebook By Weblizar Powered By Weblizar

 


We are located at the Lethbridge County Airport (CYQL) on Ramp 2 at the east end of Taxiway C.   Lethbridge is a key point of entry where you can clear customs using
CANPASS.  The Airport is approximately 5 km south of the City of Lethbridge, which offers convenient access to nearby towns such as Cardston, Crowsnest Pass, Coaldale, Fort MacLeod, Milk River, Pincher Creek and Taber.  Lethbridge and its surrounding area is a great tourist destination

 


Click on image to enlarge

Available data for CYQL from the past 2 hours
LETHBRIDGE VOR, AB
Metar
CYQL 290702Z AUTO 27007KT 9SM -RA BKN038 BKN046 BKN060 OVC074 12/10 A3000 RMK SLP152 DENSITY ALT 3300FT

07:02 UTC

Wind: 270° 7kt

Visibility: 9 SM

Sky: BKN 3800 ft

Temp: 12 deg C / 53.6 deg F

Dewpoint: 10 deg C / 50 deg F

Pressure: 30 inHg

TAF
TAF CYQL 290538Z 2906/2918 25008KT P6SM FEW020 SCT040 BKN100 TEMPO 2906/2916 P6SM -SHRA BKN020 BKN040 BKN100 BECMG 2906/2908 29012KT FM291600 33012KT P6SM BKN040 BKN100 RMK FCST BASED ON AUTO OBS. NXT FCST BY 291200Z